createdAt,value
2019-06-08T00:02:22.828Z,91.83
2019-06-08T00:04:55.274Z,90.72
2019-06-08T00:07:27.726Z,89.08
2019-06-08T00:09:59.987Z,88.78
2019-06-08T00:12:33.517Z,88.61
2019-06-08T00:15:07.029Z,88.03
2019-06-08T00:17:39.932Z,87.40
2019-06-08T00:20:13.469Z,87.60
2019-06-08T00:22:46.061Z,87.50
2019-06-08T00:25:19.172Z,88.60
2019-06-08T00:27:51.877Z,88.71
2019-06-08T00:30:24.611Z,86.89
2019-06-08T00:32:57.835Z,86.30
2019-06-08T00:35:31.766Z,86.20
2019-06-08T00:38:03.742Z,86.31
2019-06-08T00:40:36.330Z,86.30
2019-06-08T00:43:09.340Z,86.50
2019-06-08T00:45:42.528Z,86.76
2019-06-08T00:48:16.642Z,88.08
2019-06-08T00:50:49.694Z,87.47
2019-06-08T00:53:23.214Z,87.53
2019-06-08T00:55:55.830Z,87.08
2019-06-08T00:58:28.595Z,87.70
2019-06-08T01:01:01.374Z,85.77
2019-06-08T01:03:41.736Z,86.05
2019-06-08T01:06:14.249Z,85.51
2019-06-08T01:08:47.062Z,86.80
2019-06-08T01:11:20.828Z,87.26
2019-06-08T01:13:52.545Z,85.76
2019-06-08T01:16:25.082Z,85.82
2019-06-08T01:18:58.118Z,84.01
2019-06-08T01:21:30.780Z,84.30
2019-06-08T01:24:04.409Z,84.60
2019-06-08T01:26:38.335Z,83.68
2019-06-08T01:29:11.291Z,82.29
2019-06-08T01:31:43.207Z,81.49
2019-06-08T01:34:15.772Z,80.12
2019-06-08T01:36:48.344Z,79.63
2019-06-08T01:39:21.164Z,79.94
2019-06-08T01:41:53.837Z,79.07
2019-06-08T01:44:27.952Z,78.70
2019-06-08T01:47:00.444Z,80.09
2019-06-08T01:49:33.083Z,79.66
2019-06-08T01:52:07.706Z,80.00
2019-06-08T01:54:39.626Z,80.14
2019-06-08T01:57:12.984Z,79.19
2019-06-08T01:59:46.058Z,78.45
2019-06-08T02:02:20.271Z,78.37
2019-06-08T02:04:55.633Z,78.54
2019-06-08T02:07:45.974Z,78.02
2019-06-08T02:10:19.494Z,77.64
2019-06-08T02:12:54.449Z,77.65
2019-06-08T02:15:27.200Z,77.53
2019-06-08T02:17:59.069Z,77.67
2019-06-08T02:20:33.036Z,77.68
2019-06-08T02:23:13.301Z,77.68
2019-06-08T02:25:45.186Z,77.47
2019-06-08T02:28:18.359Z,77.35
2019-06-08T02:30:52.219Z,77.96
2019-06-08T02:33:25.672Z,77.43
2019-06-08T02:35:57.965Z,77.97
2019-06-08T02:38:31.578Z,77.69
2019-06-08T02:41:03.873Z,77.70
2019-06-08T02:43:38.262Z,77.43
2019-06-08T02:46:11.461Z,77.50
2019-06-08T02:49:04.183Z,77.50
2019-06-08T02:51:33.796Z,77.23
2019-06-08T02:54:05.870Z,76.56
2019-06-08T02:56:42.883Z,77.05
2019-06-08T02:59:16.858Z,77.21
2019-06-08T03:01:50.050Z,77.89
2019-06-08T03:04:23.762Z,77.89
2019-06-08T03:06:57.638Z,77.74
2019-06-08T03:09:31.118Z,78.11
2019-06-08T03:12:07.051Z,78.07
2019-06-08T03:14:49.551Z,78.03
2019-06-08T03:17:23.254Z,77.83
2019-06-08T03:20:02.767Z,77.59
2019-06-08T03:22:37.152Z,77.71
2019-06-08T03:25:08.953Z,77.46
2019-06-08T03:27:54.016Z,77.05
2019-06-08T03:30:37.835Z,76.33
2019-06-08T03:33:09.322Z,76.24
2019-06-08T03:35:52.622Z,76.65
2019-06-08T03:38:24.334Z,76.45
2019-06-08T03:40:58.506Z,76.56
2019-06-08T03:43:32.471Z,76.83
2019-06-08T03:46:06.999Z,77.28
2019-06-08T03:48:41.648Z,77.85
2019-06-08T03:51:15.914Z,77.54
2019-06-08T03:53:48.895Z,77.69
2019-06-08T03:56:22.755Z,78.06
2019-06-08T03:58:57.472Z,78.14
2019-06-08T04:01:30.384Z,78.00
2019-06-08T04:04:03.346Z,77.65
2019-06-08T04:06:37.679Z,77.55
2019-06-08T04:09:13.259Z,77.73
2019-06-08T04:11:52.617Z,77.02
2019-06-08T04:14:27.517Z,77.00
2019-06-08T04:17:06.028Z,76.90
2019-06-08T04:19:59.812Z,76.53
2019-06-08T04:22:23.387Z,76.13
2019-06-08T04:27:48.632Z,74.35
2019-06-08T04:30:21.824Z,74.41
2019-06-08T04:32:59.955Z,74.10
2019-06-08T04:35:34.973Z,72.71
2019-06-08T04:38:08.619Z,72.73
2019-06-08T04:40:46.020Z,72.13
2019-06-08T04:43:25.857Z,72.40
2019-06-08T04:46:05.557Z,72.92
2019-06-08T04:48:40.511Z,74.81
2019-06-08T04:51:13.853Z,75.23
2019-06-08T04:53:49.510Z,76.75
2019-06-08T04:56:23.016Z,76.92
2019-06-08T04:58:55.119Z,77.17
2019-06-08T05:01:27.877Z,77.43
2019-06-08T05:04:01.734Z,77.68
2019-06-08T05:06:34.797Z,76.60
2019-06-08T05:09:10.668Z,76.81
2019-06-08T05:11:45.202Z,76.52
2019-06-08T05:14:17.564Z,75.91
2019-06-08T05:16:50.621Z,75.26
2019-06-08T05:19:30.687Z,74.62
2019-06-08T05:22:07.066Z,74.22
2019-06-08T05:24:41.298Z,73.58
2019-06-08T05:27:15.701Z,73.72
2019-06-08T05:35:30.284Z,74.24
2019-06-08T05:38:03.170Z,73.39
2019-06-08T05:40:36.860Z,73.30
2019-06-08T05:43:09.268Z,73.09
2019-06-08T05:45:41.997Z,72.86
2019-06-08T05:48:15.995Z,72.66
2019-06-08T05:51:00.391Z,72.66
2019-06-08T05:53:22.461Z,73.95
2019-06-08T05:55:55.163Z,74.35
2019-06-08T05:58:28.912Z,73.94
2019-06-08T06:01:03.194Z,74.34
2019-06-08T06:03:46.669Z,74.48
2019-06-08T06:06:20.693Z,73.89
2019-06-08T06:08:54.975Z,73.13
2019-06-08T06:11:28.478Z,73.56
2019-06-08T06:14:03.670Z,73.12
2019-06-08T06:16:39.053Z,73.24
2019-06-08T06:19:11.876Z,72.50
2019-06-08T06:21:45.106Z,72.69
2019-06-08T06:24:25.468Z,72.85
2019-06-08T06:26:59.480Z,72.81
2019-06-08T06:29:32.649Z,73.53
2019-06-08T06:32:06.520Z,73.84
2019-06-08T06:34:46.295Z,73.58
2019-06-08T06:37:22.238Z,73.35
2019-06-08T06:39:55.361Z,72.88
2019-06-08T06:42:34.224Z,72.98
2019-06-08T06:45:09.381Z,72.79
2019-06-08T06:47:42.233Z,72.35
2019-06-08T06:50:15.257Z,73.33
2019-06-08T06:52:48.946Z,72.48
2019-06-08T06:55:28.173Z,72.30
2019-06-08T06:58:00.634Z,72.98
2019-06-08T07:00:35.170Z,72.90
2019-06-08T07:03:11.822Z,73.21
2019-06-08T07:05:52.260Z,74.17
2019-06-08T07:08:24.599Z,74.01
2019-06-08T07:10:57.046Z,74.00
2019-06-08T07:13:37.230Z,73.91
2019-06-08T07:16:21.161Z,74.32
2019-06-08T07:18:55.865Z,73.95
2019-06-08T07:21:41.267Z,74.08
2019-06-08T07:24:04.926Z,74.08
2019-06-08T07:26:50.349Z,73.68
2019-06-08T07:29:25.795Z,73.52
2019-06-08T07:34:50.442Z,73.84
2019-06-08T07:37:27.453Z,73.84
2019-06-08T07:40:04.517Z,73.35
2019-06-08T07:42:36.575Z,73.59
2019-06-08T07:45:10.123Z,73.70
2019-06-08T07:47:44.537Z,73.38
2019-06-08T07:50:19.311Z,73.64
2019-06-08T07:52:56.876Z,73.55
2019-06-08T07:55:28.474Z,72.78
2019-06-08T07:58:00.930Z,70.69
2019-06-08T08:00:33.919Z,71.69
2019-06-08T08:03:06.850Z,69.84
2019-06-08T08:05:39.540Z,69.58
2019-06-08T08:08:15.196Z,69.47
2019-06-08T08:10:59.700Z,69.80
2019-06-08T08:13:36.680Z,68.46
2019-06-08T09:37:02.934Z,74.34
2019-06-08T09:39:34.370Z,74.09
2019-06-08T09:42:11.567Z,74.00
2019-06-08T09:44:44.446Z,73.39
2019-06-08T09:47:19.237Z,73.13
2019-06-08T09:49:53.776Z,72.65
2019-06-08T09:52:28.145Z,71.90
2019-06-08T09:55:06.932Z,71.98
2019-06-08T09:57:40.353Z,71.79
2019-06-08T10:00:18.229Z,71.79
2019-06-08T10:02:47.849Z,71.71
2019-06-08T10:05:20.002Z,71.42
2019-06-08T10:07:54.430Z,71.75
2019-06-08T10:10:34.982Z,70.95
2019-06-08T10:13:09.717Z,71.43
2019-06-08T10:15:41.285Z,70.40
2019-06-08T10:18:13.684Z,70.66
2019-06-08T10:20:48.218Z,70.13
2019-06-08T10:23:30.954Z,70.42
2019-06-08T10:25:59.577Z,70.02
2019-06-08T10:28:38.855Z,69.21
2019-06-08T10:31:10.128Z,69.28
2019-06-08T10:33:43.118Z,69.70
2019-06-08T10:36:18.129Z,69.17
2019-06-08T10:38:49.313Z,68.91
2019-06-08T10:41:22.897Z,69.38
2019-06-08T10:44:03.461Z,68.81
2019-06-08T10:46:40.272Z,68.61
2019-06-08T10:49:14.279Z,68.05
2019-06-08T10:51:43.685Z,68.04
2019-06-08T10:54:17.457Z,68.27
2019-06-08T10:56:49.788Z,68.13
2019-06-08T10:59:22.473Z,67.95
2019-06-08T11:01:55.435Z,68.24
2019-06-08T11:04:28.726Z,68.30
2019-06-08T11:07:06.979Z,68.32
2019-06-08T11:09:36.907Z,68.88
2019-06-08T11:12:14.590Z,68.70
2019-06-08T11:14:43.032Z,68.33
2019-06-08T11:17:17.905Z,68.80
2019-06-08T11:19:49.845Z,69.45
2019-06-08T11:22:22.679Z,69.30
2019-06-08T11:24:55.047Z,69.53
2019-06-08T11:27:28.504Z,68.64
2019-06-08T11:30:05.879Z,69.22
2019-06-08T11:32:38.334Z,69.27
2019-06-08T11:35:12.299Z,68.84
2019-06-08T11:37:44.284Z,68.50
2019-06-08T11:40:20.322Z,68.62
2019-06-08T11:42:51.058Z,68.90
2019-06-08T11:45:31.054Z,69.57
2019-06-08T11:48:04.538Z,69.83
2019-06-08T11:50:42.121Z,70.38
2019-06-08T11:53:20.722Z,70.50
2019-06-08T11:56:02.771Z,71.06
2019-06-08T11:58:38.585Z,71.12
2019-06-08T12:01:14.735Z,71.17
2019-06-08T12:03:52.065Z,71.45
2019-06-08T12:06:24.213Z,71.48
2019-06-08T12:08:57.432Z,70.97
2019-06-08T12:11:29.375Z,70.42
2019-06-08T12:14:00.972Z,70.89
2019-06-08T12:16:32.705Z,70.88
2019-06-08T12:19:15.125Z,70.78
2019-06-08T12:21:49.671Z,72.10
2019-06-08T12:24:19.093Z,71.45
2019-06-08T12:26:55.573Z,73.17
2019-06-08T12:29:28.217Z,72.73
2019-06-08T12:32:00.485Z,72.09
2019-06-08T12:34:34.144Z,73.81
2019-06-08T12:37:13.188Z,73.33
2019-06-08T12:39:41.182Z,73.19
2019-06-08T12:42:18.651Z,73.33
2019-06-08T12:44:47.625Z,73.51
2019-06-08T12:47:26.494Z,73.56
2019-06-08T12:49:58.483Z,73.36
2019-06-08T12:52:43.216Z,74.26
2019-06-08T12:55:25.347Z,74.85
2019-06-08T12:57:58.103Z,74.96
2019-06-08T13:00:30.753Z,74.63
2019-06-08T13:03:03.057Z,74.51
2019-06-08T13:05:37.933Z,74.89
2019-06-08T13:08:11.778Z,75.34
2019-06-08T13:10:47.937Z,75.82
2019-06-08T13:13:24.331Z,75.44
2019-06-08T13:15:54.690Z,75.82
2019-06-08T13:18:26.900Z,76.18
2019-06-08T13:21:13.145Z,76.23
2019-06-08T13:23:33.792Z,76.81
2019-06-08T13:26:15.152Z,76.08
2019-06-08T13:28:46.722Z,75.69
2019-06-08T13:31:22.624Z,75.60
2019-06-08T13:33:53.874Z,75.82
2019-06-08T13:36:29.312Z,76.12
2019-06-08T13:39:00.630Z,76.81
2019-06-08T13:41:34.370Z,76.42
2019-06-08T13:44:08.423Z,75.64
2019-06-08T13:46:47.855Z,76.02
2019-06-08T13:49:26.659Z,76.52
2019-06-08T13:51:54.008Z,76.04
2019-06-08T13:54:30.902Z,76.99
2019-06-08T13:56:59.946Z,76.94
2019-06-08T13:59:32.375Z,77.50
2019-06-08T14:02:04.655Z,76.73
2019-06-08T14:04:39.406Z,77.07
2019-06-08T14:07:10.621Z,77.49
2019-06-08T14:09:43.847Z,78.03
2019-06-08T14:12:19.800Z,77.88
2019-06-08T14:14:50.534Z,77.63
2019-06-08T14:17:27.065Z,77.95
2019-06-08T14:19:59.548Z,78.54
2019-06-08T14:22:32.471Z,77.99
2019-06-08T14:25:05.350Z,79.44
2019-06-08T14:27:38.149Z,78.74
2019-06-08T14:30:10.974Z,78.16
2019-06-08T14:32:44.347Z,78.03
2019-06-08T14:35:19.222Z,76.88
2019-06-08T14:37:50.983Z,77.82
2019-06-08T14:40:32.680Z,78.93
2019-06-08T14:43:05.109Z,78.92
2019-06-08T14:45:39.056Z,78.54
2019-06-08T14:48:11.987Z,79.13
2019-06-08T14:50:44.587Z,77.62
2019-06-08T14:53:18.867Z,77.18
2019-06-08T14:56:04.898Z,74.93
2019-06-08T14:58:34.611Z,78.65
2019-06-08T15:01:07.924Z,77.06
2019-06-08T15:03:39.477Z,78.03
2019-06-08T15:06:11.419Z,76.93
2019-06-08T15:08:44.521Z,77.44
2019-06-08T15:11:18.013Z,78.84
2019-06-08T15:13:50.266Z,78.32
2019-06-08T15:16:23.570Z,78.38
2019-06-08T15:19:00.139Z,78.62
2019-06-08T15:21:32.997Z,78.12
2019-06-08T15:24:04.176Z,76.55
2019-06-08T15:26:44.549Z,75.87
2019-06-08T15:29:10.517Z,79.06
2019-06-08T15:31:43.451Z,78.52
2019-06-08T15:34:17.803Z,76.47
2019-06-08T15:36:50.216Z,78.45
2019-06-08T15:39:23.484Z,78.14
2019-06-08T15:41:59.912Z,78.48
2019-06-08T15:44:32.453Z,78.41
2019-06-08T15:47:08.208Z,78.16
2019-06-08T15:49:39.840Z,77.94
2019-06-08T15:52:12.499Z,77.97
2019-06-08T15:54:45.484Z,78.03
2019-06-08T15:57:23.046Z,78.14
2019-06-08T15:59:59.690Z,78.19
2019-06-08T16:02:33.925Z,78.24
2019-06-08T16:05:09.935Z,78.51
2019-06-08T16:07:42.381Z,78.58
2019-06-08T16:10:17.270Z,80.36
2019-06-08T16:12:51.091Z,79.55
2019-06-08T16:18:14.731Z,85.46
2019-06-08T16:20:47.246Z,83.21
2019-06-08T16:23:25.386Z,81.33
2019-06-08T16:26:03.076Z,81.16
2019-06-08T16:28:36.856Z,81.82
2019-06-08T16:31:10.756Z,81.47
2019-06-08T16:33:45.890Z,83.35
2019-06-08T16:36:18.525Z,82.53
2019-06-08T16:38:52.966Z,84.37
2019-06-08T16:41:25.936Z,85.75
2019-06-08T16:43:58.575Z,89.50
2019-06-08T16:46:32.927Z,92.46
2019-06-08T16:49:05.404Z,92.61
2019-06-08T16:51:38.257Z,93.46
2019-06-08T16:54:17.250Z,94.61
2019-06-08T16:57:09.516Z,94.38
2019-06-08T16:59:32.354Z,95.59
2019-06-08T17:02:16.147Z,97.14
2019-06-08T17:04:46.353Z,96.62
2019-06-08T17:07:18.567Z,91.56
2019-06-08T17:09:51.314Z,95.22
2019-06-08T17:12:23.783Z,95.52
2019-06-08T17:14:56.835Z,95.91
2019-06-08T17:17:30.311Z,94.77
2019-06-08T17:22:54.386Z,93.71
2019-06-08T17:25:27.371Z,95.31
2019-06-08T17:28:00.924Z,94.94
2019-06-08T17:30:35.691Z,95.09
2019-06-08T17:33:07.824Z,92.41
2019-06-08T17:35:42.280Z,91.26
2019-06-08T17:38:14.842Z,94.25
2019-06-08T17:40:48.444Z,92.39
2019-06-08T17:43:24.294Z,92.65
2019-06-08T17:45:58.065Z,90.27
2019-06-08T17:48:32.359Z,89.15
2019-06-08T17:51:05.993Z,88.86
2019-06-08T17:53:39.244Z,88.50
2019-06-08T17:56:11.842Z,88.40
2019-06-08T17:58:44.823Z,88.29
2019-06-08T18:01:17.817Z,88.87
2019-06-08T18:03:50.389Z,91.11
2019-06-08T18:06:23.526Z,89.84
2019-06-08T18:08:58.975Z,90.06
2019-06-08T18:11:31.893Z,88.76
2019-06-08T18:14:04.761Z,88.50
2019-06-08T18:16:40.887Z,87.88
2019-06-08T18:19:14.074Z,87.39
2019-06-08T18:24:47.745Z,86.88
2019-06-08T18:27:19.421Z,87.54
2019-06-08T18:29:52.326Z,86.80
2019-06-08T18:32:27.200Z,89.83
2019-06-08T18:35:00.035Z,89.04
2019-06-08T18:37:33.313Z,91.52
2019-06-08T18:40:08.481Z,91.53
2019-06-08T18:42:42.634Z,91.63
2019-06-08T18:45:18.195Z,90.77
2019-06-08T18:47:50.796Z,89.34
2019-06-08T18:50:23.239Z,89.64
2019-06-08T18:52:57.842Z,88.80
2019-06-08T18:55:28.854Z,89.23
2019-06-08T18:58:20.050Z,88.68
2019-06-08T19:00:43.799Z,88.16
2019-06-08T19:03:17.146Z,89.17
2019-06-08T19:05:56.729Z,88.90
2019-06-08T19:08:30.155Z,88.97
2019-06-08T19:11:04.090Z,88.10
2019-06-08T19:13:37.881Z,87.82
2019-06-08T19:16:11.303Z,88.00
2019-06-08T19:18:52.127Z,89.75
2019-06-08T19:21:21.599Z,91.18
2019-06-08T19:23:55.162Z,90.27
2019-06-08T19:26:28.545Z,90.10
2019-06-08T19:29:01.514Z,89.93
2019-06-08T19:31:38.629Z,89.50
2019-06-08T19:34:28.217Z,90.59
2019-06-08T19:36:59.659Z,89.98
2019-06-08T19:39:32.147Z,89.70
2019-06-08T19:42:05.028Z,89.64
